Terminal Aerodrome Forecast
Issued by NWS Cleveland, OH

Home | Current Version | Previous Version | Graphics & Text | Print | Product List | Glossary Off
Versions: 1 2 3 4 5 6 7 8 9 10 11 12 13 14 15 16 17 18 19

000
FTUS41 KCLE 040000 AAA
TAFERI
TAF AMD
KERI 040052Z 0401/0424 21015G25KT 4SM BR OVC012
     FM040400 21015G25KT P6SM OVC012
     FM040900 26008KT P6SM OVC015
     FM042000 29010G15KT P6SM OVC025
     FM042200 29010KT P6SM OVC100=

USA.gov is the U.S. government's official web portal to all federal, state and local government web resources and services.